Time;durP1;ratioP1;P1;durP2;ratioP2;P2;SDS_P1;SDS_P2;PMS_P1;PMS_P2;Temp;Humidity;BMP_temperature;BMP_pressure;BME280_temperature;BME280_humidity;BME280_pressure;Samples;Min_cycle;Max_cycle;Signal;HPM_P1;HPM_P2
2024/01/27 00:00:06;;;;;;;20.23;3.70;;;3.90;99.90;;;;;;6247331;22;20393;-81
2024/01/27 00:02:32;;;;;;;19.55;3.38;;;3.80;99.90;;;;;;6246639;22;20027;-82
2024/01/27 00:04:57;;;;;;;17.10;2.93;;;3.80;99.90;;;;;;6220518;22;20024;-81
2024/01/27 00:07:25;;;;;;;17.48;3.00;;;3.70;99.90;;;;;;6247443;22;20103;-81
2024/01/27 00:09:50;;;;;;;14.70;2.90;;;3.70;99.90;;;;;;6247643;22;20431;-81
2024/01/27 00:12:16;;;;;;;14.45;2.53;;;3.60;99.90;;;;;;6247600;22;20011;-81
2024/01/27 00:14:43;;;;;;;16.17;2.78;;;3.60;99.90;;;;;;6246635;22;20029;-81
2024/01/27 00:17:09;;;;;;;14.65;2.63;;;3.60;99.90;;;;;;6247659;22;20103;-81
2024/01/27 00:19:34;;;;;;;13.77;2.33;;;3.60;99.90;;;;;;6248063;22;20086;-81
2024/01/27 00:22:00;;;;;;;10.70;2.40;;;3.50;99.90;;;;;;6248939;22;20008;-81
2024/01/27 00:24:25;;;;;;;19.75;3.58;;;3.60;99.90;;;;;;6249072;22;20085;-81
2024/01/27 00:26:51;;;;;;;19.63;3.73;;;3.60;99.90;;;;;;6249114;22;20020;-81
2024/01/27 00:29:17;;;;;;;20.40;2.75;;;3.60;99.90;;;;;;6248262;22;20587;-81
2024/01/27 00:31:42;;;;;;;17.07;2.80;;;3.60;99.90;;;;;;6248580;22;20016;-81
2024/01/27 00:34:08;;;;;;;19.83;3.83;;;3.60;99.90;;;;;;6250379;22;20042;-81
2024/01/27 00:36:36;;;;;;;13.63;2.60;;;3.60;99.90;;;;;;6249032;22;20348;-81
2024/01/27 00:39:03;;;;;;;18.20;2.88;;;3.50;99.90;;;;;;6248891;22;20087;-81
2024/01/27 00:41:28;;;;;;;;;;;3.50;99.90;;;;;;6251566;22;20012;-81
2024/01/27 00:43:54;;;;;;;15.43;2.45;;;3.50;99.90;;;;;;6248325;22;19977;-81
2024/01/27 00:46:19;;;;;;;17.02;2.83;;;3.40;99.90;;;;;;6242212;22;20088;-81
2024/01/27 00:48:45;;;;;;;18.10;3.70;;;3.40;99.90;;;;;;6240145;22;20081;-81
2024/01/27 00:51:11;;;;;;;13.57;2.15;;;3.40;99.90;;;;;;6251666;22;20011;-81
2024/01/27 00:53:36;;;;;;;17.90;3.30;;;3.40;99.90;;;;;;6239480;22;20557;-81
2024/01/27 00:56:02;;;;;;;16.87;2.70;;;3.40;99.90;;;;;;6251424;22;20227;-82
2024/01/27 00:58:28;;;;;;;20.15;3.28;;;3.40;99.90;;;;;;6241025;22;20023;-81
2024/01/27 01:00:54;;;;;;;19.35;3.03;;;3.50;99.90;;;;;;6250103;22;20015;-81
2024/01/27 01:03:19;;;;;;;18.73;3.20;;;3.60;99.90;;;;;;6244781;22;20387;-81
2024/01/27 01:05:45;;;;;;;26.00;3.80;;;3.60;99.90;;;;;;6243969;22;20258;-81
2024/01/27 01:08:10;;;;;;;18.93;3.57;;;3.70;99.90;;;;;;6247432;22;20073;-81
2024/01/27 01:10:36;;;;;;;20.43;2.80;;;3.70;99.90;;;;;;6250907;22;20248;-81
2024/01/27 01:13:01;;;;;;;19.27;3.13;;;3.70;99.90;;;;;;6249685;22;20261;-80
2024/01/27 01:15:27;;;;;;;20.88;3.75;;;3.70;99.90;;;;;;6250976;22;20150;-80
2024/01/27 01:17:53;;;;;;;19.13;2.78;;;3.80;99.90;;;;;;6250631;22;20008;-80
2024/01/27 01:20:18;;;;;;;15.67;3.03;;;3.80;99.90;;;;;;6251232;22;20012;-81
2024/01/27 01:22:44;;;;;;;13.55;2.83;;;3.80;99.90;;;;;;6250968;22;20345;-81
2024/01/27 01:25:09;;;;;;;24.83;4.45;;;3.80;99.90;;;;;;6250486;22;20066;-81
2024/01/27 01:27:35;;;;;;;15.05;2.30;;;3.80;99.90;;;;;;6250071;22;20019;-80
2024/01/27 01:30:01;;;;;;;15.10;2.50;;;3.80;99.90;;;;;;6250900;22;20011;-81
2024/01/27 01:32:26;;;;;;;14.30;2.50;;;3.80;99.90;;;;;;6248214;22;20687;-81
2024/01/27 01:34:52;;;;;;;15.82;2.60;;;3.70;99.90;;;;;;6250946;22;20171;-81
2024/01/27 01:37:17;;;;;;;22.77;2.97;;;3.70;99.90;;;;;;6248161;22;20023;-81
2024/01/27 01:39:43;;;;;;;19.23;2.90;;;3.70;99.90;;;;;;6248736;22;20916;-81
2024/01/27 01:42:09;;;;;;;16.15;3.25;;;3.70;99.90;;;;;;6248165;22;20341;-81
2024/01/27 01:44:34;;;;;;;15.40;3.17;;;3.70;99.90;;;;;;6250669;22;20015;-81
2024/01/27 01:47:00;;;;;;;16.30;2.88;;;3.70;99.90;;;;;;6250829;22;20019;-81
2024/01/27 01:49:26;;;;;;;20.58;3.40;;;3.70;99.90;;;;;;6250943;22;20047;-81
2024/01/27 01:51:52;;;;;;;14.63;2.53;;;3.80;99.90;;;;;;6249345;22;20115;-81
2024/01/27 01:54:19;;;;;;;16.35;2.40;;;3.70;99.90;;;;;;6246718;22;20099;-81
2024/01/27 01:56:44;;;;;;;;;;;3.70;99.90;;;;;;6248489;22;20011;-81
2024/01/27 01:59:10;;;;;;;15.35;2.60;;;3.80;99.90;;;;;;6247167;22;20140;-81
2024/01/27 02:01:36;;;;;;;13.83;2.40;;;3.70;99.90;;;;;;6247917;22;20345;-81
2024/01/27 02:04:04;;;;;;;16.45;2.42;;;3.70;99.90;;;;;;6249220;22;20286;-81
2024/01/27 02:06:29;;;;;;;14.23;2.78;;;3.70;99.90;;;;;;6223033;22;20020;-81
2024/01/27 02:08:55;;;;;;;17.13;2.77;;;3.70;99.90;;;;;;6249401;22;20073;-81
2024/01/27 02:11:20;;;;;;;10.50;2.00;;;3.60;99.90;;;;;;6248105;22;20235;-81
2024/01/27 02:13:47;;;;;;;20.10;2.58;;;3.60;99.90;;;;;;6247354;22;20030;-81
2024/01/27 02:16:12;;;;;;;15.13;2.45;;;3.50;99.90;;;;;;6247844;22;20012;-81
2024/01/27 02:18:38;;;;;;;13.55;2.63;;;3.40;99.90;;;;;;6247464;22;20023;-81
2024/01/27 02:21:04;;;;;;;16.00;2.90;;;3.40;99.90;;;;;;6249305;22;20025;-81
2024/01/27 02:23:29;;;;;;;15.48;2.70;;;3.40;99.90;;;;;;6249002;22;20015;-81
2024/01/27 02:25:55;;;;;;;17.73;2.67;;;3.40;99.90;;;;;;6250181;22;20074;-83
2024/01/27 02:28:23;;;;;;;14.27;2.30;;;3.40;99.90;;;;;;6247485;22;20245;-83
2024/01/27 02:30:49;;;;;;;15.15;2.30;;;3.30;99.90;;;;;;6247549;22;20345;-81
2024/01/27 02:33:14;;;;;;;16.43;2.30;;;3.30;99.90;;;;;;6246525;22;20448;-81
2024/01/27 02:35:40;;;;;;;18.27;3.25;;;3.30;99.90;;;;;;6223292;22;20102;-80
2024/01/27 02:38:05;;;;;;;25.60;2.93;;;3.20;99.90;;;;;;6248816;22;20012;-81
2024/01/27 02:40:31;;;;;;;23.17;4.10;;;3.20;99.90;;;;;;6248600;22;20353;-81
2024/01/27 02:42:56;;;;;;;19.10;3.58;;;3.30;99.90;;;;;;6249478;22;20023;-81
2024/01/27 02:45:22;;;;;;;14.53;2.40;;;3.30;99.90;;;;;;6249238;22;20043;-81
2024/01/27 02:47:48;;;;;;;10.75;2.53;;;3.30;99.90;;;;;;6248074;22;20246;-80
2024/01/27 02:50:13;;;;;;;14.83;2.20;;;3.30;99.90;;;;;;6249842;22;20073;-81
2024/01/27 02:52:39;;;;;;;14.52;3.33;;;3.20;99.90;;;;;;6248652;22;20677;-81
2024/01/27 02:55:05;;;;;;;14.57;2.27;;;3.20;99.90;;;;;;6248981;22;20692;-81
2024/01/27 02:57:31;;;;;;;19.50;2.97;;;3.20;99.90;;;;;;6247379;22;20250;-81
2024/01/27 02:59:56;;;;;;;17.60;2.50;;;3.20;99.90;;;;;;6246966;22;20019;-80
2024/01/27 03:02:22;;;;;;;12.70;2.17;;;3.10;99.90;;;;;;6247319;22;20027;-81
2024/01/27 03:04:47;;;;;;;17.00;2.67;;;3.10;99.90;;;;;;6247652;22;20312;-81
2024/01/27 03:07:13;;;;;;;13.30;2.33;;;3.10;99.90;;;;;;6247760;22;20629;-81
2024/01/27 03:09:38;;;;;;;16.08;2.90;;;3.10;99.90;;;;;;6249886;22;20249;-81
2024/01/27 03:12:04;;;;;;;17.92;2.50;;;3.20;99.90;;;;;;6250441;22;20011;-82
2024/01/27 03:14:30;;;;;;;15.10;2.45;;;3.20;99.90;;;;;;6250398;22;20051;-82
2024/01/27 03:16:56;;;;;;;16.48;3.05;;;3.20;99.90;;;;;;6248261;22;20015;-82
2024/01/27 03:19:21;;;;;;;17.65;3.35;;;3.20;99.90;;;;;;6247936;22;20012;-81
2024/01/27 03:21:47;;;;;;;16.88;2.80;;;3.20;99.90;;;;;;6247228;22;20019;-81
2024/01/27 03:24:13;;;;;;;15.32;2.45;;;3.20;99.90;;;;;;6247033;22;20024;-81
2024/01/27 03:26:38;;;;;;;15.80;2.33;;;3.30;99.90;;;;;;6247393;22;20016;-81
2024/01/27 03:29:04;;;;;;;14.07;2.30;;;3.20;99.90;;;;;;6247503;22;20055;-81
2024/01/27 03:31:31;;;;;;;7.90;2.10;;;3.30;99.90;;;;;;6248246;22;21015;-80
2024/01/27 03:34:00;;;;;;;17.58;2.25;;;3.20;99.90;;;;;;6248232;22;20110;-80
2024/01/27 03:36:26;;;;;;;18.75;2.83;;;3.20;99.90;;;;;;6248263;22;20027;-80
2024/01/27 03:38:52;;;;;;;17.27;2.45;;;3.20;99.90;;;;;;6222962;22;20016;-80
2024/01/27 03:41:18;;;;;;;13.98;2.25;;;3.20;99.90;;;;;;6247720;22;20592;-80
2024/01/27 03:43:43;;;;;;;13.23;2.50;;;3.20;99.90;;;;;;6247977;22;20031;-81
2024/01/27 03:46:09;;;;;;;14.80;2.08;;;3.20;99.90;;;;;;6248065;22;20019;-80
2024/01/27 03:48:35;;;;;;;15.07;3.13;;;3.20;99.90;;;;;;6249241;22;20038;-81
2024/01/27 03:51:01;;;;;;;15.35;2.55;;;3.30;99.90;;;;;;6248622;22;20058;-80
2024/01/27 03:53:26;;;;;;;14.77;2.42;;;3.30;99.90;;;;;;6246770;22;20070;-81
2024/01/27 03:55:52;;;;;;;18.25;2.97;;;3.40;99.90;;;;;;6249427;22;20911;-81
2024/01/27 03:58:18;;;;;;;18.40;3.35;;;3.30;99.90;;;;;;6248339;22;20016;-80
2024/01/27 04:00:44;;;;;;;13.85;2.63;;;3.30;99.90;;;;;;6249580;22;20299;-81
2024/01/27 04:03:09;;;;;;;12.97;2.57;;;3.30;99.90;;;;;;6247411;22;20026;-81
2024/01/27 04:05:35;;;;;;;14.95;3.08;;;3.30;99.90;;;;;;6249426;22;20363;-81
2024/01/27 04:08:01;;;;;;;15.43;2.38;;;3.30;99.90;;;;;;6249313;22;20027;-81
2024/01/27 04:10:27;;;;;;;18.52;2.70;;;3.30;99.90;;;;;;6248584;22;20016;-81
2024/01/27 04:12:52;;;;;;;13.60;2.63;;;3.30;99.90;;;;;;6247741;22;20862;-81
2024/01/27 04:15:18;;;;;;;16.88;2.40;;;3.20;99.90;;;;;;6248005;22;20051;-81
2024/01/27 04:17:44;;;;;;;9.75;2.28;;;3.20;99.90;;;;;;6247214;22;20481;-81
2024/01/27 04:20:10;;;;;;;16.30;2.70;;;3.20;99.90;;;;;;6247270;22;20069;-80
2024/01/27 04:22:36;;;;;;;13.48;2.70;;;3.20;99.90;;;;;;6247110;22;20126;-80
2024/01/27 04:25:02;;;;;;;18.20;3.13;;;3.20;99.90;;;;;;6247330;22;20781;-81
2024/01/27 04:27:28;;;;;;;12.88;2.38;;;3.30;99.90;;;;;;6247575;22;20051;-80
2024/01/27 04:29:53;;;;;;;15.05;2.42;;;3.30;99.90;;;;;;6248221;22;20020;-81
2024/01/27 04:32:21;;;;;;;21.48;3.03;;;3.30;99.90;;;;;;6248890;22;20031;-80
2024/01/27 04:34:47;;;;;;;12.73;2.70;;;3.30;99.90;;;;;;6246716;22;20023;-80
2024/01/27 04:37:12;;;;;;;20.70;3.28;;;3.20;99.90;;;;;;6247416;22;20073;-80
2024/01/27 04:39:38;;;;;;;11.10;2.25;;;3.30;99.90;;;;;;6247868;22;20028;-81
2024/01/27 04:42:06;;;;;;;19.85;2.88;;;3.20;99.90;;;;;;6249154;22;20011;-80
2024/01/27 04:44:31;;;;;;;15.60;3.03;;;3.20;99.90;;;;;;6246280;22;20019;-80
2024/01/27 04:46:57;;;;;;;12.30;2.40;;;3.20;99.90;;;;;;6248548;22;20072;-80
2024/01/27 04:49:23;;;;;;;16.17;2.40;;;3.20;99.90;;;;;;6248079;22;20015;-81
2024/01/27 04:51:48;;;;;;;17.02;3.53;;;3.20;99.90;;;;;;6248856;22;20293;-80
2024/01/27 04:54:14;;;;;;;15.90;2.57;;;3.20;99.90;;;;;;6248666;22;20658;-80
2024/01/27 04:56:40;;;;;;;16.50;2.43;;;3.20;99.90;;;;;;6246636;22;20243;-80
2024/01/27 04:59:05;;;;;;;20.25;2.83;;;3.20;99.90;;;;;;6246789;22;20106;-80
2024/01/27 05:01:32;;;;;;;16.98;2.65;;;3.20;99.90;;;;;;6246502;22;20051;-80
2024/01/27 05:03:57;;;;;;;;;;;3.20;99.90;;;;;;6247074;22;20114;-80
2024/01/27 05:06:23;;;;;;;20.88;2.92;;;3.10;99.90;;;;;;6248509;22;20366;-83
2024/01/27 05:08:48;;;;;;;16.10;2.67;;;3.20;99.90;;;;;;6248784;22;20472;-82
2024/01/27 05:11:24;;;;;;;12.45;2.67;;;3.10;99.90;;;;;;6248200;22;20019;-80
2024/01/27 05:13:50;;;;;;;17.20;2.93;;;3.10;99.90;;;;;;6250805;22;20023;-80
2024/01/27 05:16:16;;;;;;;12.97;2.27;;;3.10;99.90;;;;;;6248512;22;20239;-80
2024/01/27 05:18:41;;;;;;;15.20;2.50;;;3.00;99.90;;;;;;6249468;22;20238;-83
2024/01/27 05:21:07;;;;;;;14.40;2.63;;;3.00;99.90;;;;;;6249927;22;20011;-81
2024/01/27 05:23:32;;;;;;;12.13;2.30;;;2.90;99.90;;;;;;6247761;22;20047;-80
2024/01/27 05:25:58;;;;;;;20.97;2.93;;;2.90;99.90;;;;;;6250326;22;20027;-81
2024/01/27 05:28:24;;;;;;;13.38;2.40;;;2.90;99.90;;;;;;6250471;22;20772;-80
2024/01/27 05:30:49;;;;;;;8.05;1.75;;;2.80;99.90;;;;;;6251893;22;20054;-80
2024/01/27 05:33:16;;;;;;;11.40;2.45;;;2.80;99.90;;;;;;6248756;22;20112;-80
2024/01/27 05:35:41;;;;;;;;;;;2.80;99.90;;;;;;6249057;22;20070;-80
2024/01/27 05:38:07;;;;;;;8.82;1.95;;;2.80;99.90;;;;;;6250289;22;19919;-80
2024/01/27 05:40:32;;;;;;;11.00;2.37;;;2.80;99.90;;;;;;6249088;22;20023;-80
2024/01/27 05:42:58;;;;;;;8.20;1.90;;;2.80;99.90;;;;;;6247809;22;20242;-80
2024/01/27 05:45:24;;;;;;;12.27;2.63;;;2.80;99.90;;;;;;6248652;22;20012;-80
2024/01/27 05:47:50;;;;;;;14.87;2.13;;;2.80;99.90;;;;;;6249287;22;20235;-80
2024/01/27 05:50:15;;;;;;;;;;;2.80;99.90;;;;;;6248739;22;20022;-81
2024/01/27 05:52:41;;;;;;;13.32;2.15;;;2.80;99.90;;;;;;6248579;22;19923;-80
2024/01/27 05:55:08;;;;;;;10.18;2.58;;;2.80;99.90;;;;;;6248242;22;20055;-81
2024/01/27 05:57:33;;;;;;;17.42;2.78;;;2.80;99.90;;;;;;6248747;22;20746;-80
2024/01/27 05:59:59;;;;;;;13.37;2.20;;;2.80;99.90;;;;;;6250078;22;20011;-80
2024/01/27 06:02:25;;;;;;;15.13;2.80;;;2.90;99.90;;;;;;6247944;22;20246;-81
2024/01/27 06:04:50;;;;;;;12.90;2.90;;;2.80;99.90;;;;;;6248614;22;20062;-80
2024/01/27 06:07:16;;;;;;;12.30;2.42;;;2.80;99.90;;;;;;6250774;22;20500;-80
2024/01/27 06:09:41;;;;;;;11.88;2.08;;;2.80;99.90;;;;;;6248591;22;20047;-80
2024/01/27 06:12:07;;;;;;;17.83;2.27;;;2.80;99.90;;;;;;6250000;22;20082;-80
2024/01/27 06:14:33;;;;;;;15.77;2.42;;;2.80;99.90;;;;;;6247836;22;20266;-80
2024/01/27 06:16:59;;;;;;;9.60;2.00;;;2.80;99.90;;;;;;6246713;22;20530;-80
2024/01/27 06:19:25;;;;;;;13.45;2.15;;;2.70;99.90;;;;;;6221558;22;20011;-80
2024/01/27 06:21:51;;;;;;;12.37;3.63;;;2.70;99.90;;;;;;6223217;22;20383;-82
2024/01/27 06:24:16;;;;;;;15.60;2.50;;;2.70;99.90;;;;;;6247469;22;20272;-82
2024/01/27 06:26:42;;;;;;;9.77;2.10;;;2.70;99.90;;;;;;6248549;22;20026;-80
2024/01/27 06:29:07;;;;;;;16.17;2.50;;;2.70;99.90;;;;;;6222888;22;20057;-80
2024/01/27 06:31:33;;;;;;;20.10;2.80;;;2.70;99.90;;;;;;6249143;22;20011;-81
2024/01/27 06:33:59;;;;;;;15.20;2.25;;;2.70;99.90;;;;;;6247612;22;20357;-80
2024/01/27 06:36:27;;;;;;;13.60;2.53;;;2.70;99.90;;;;;;6248696;22;20015;-80
2024/01/27 06:38:52;;;;;;;20.90;2.85;;;2.70;99.90;;;;;;6247561;22;20719;-83
2024/01/27 06:41:18;;;;;;;16.13;2.97;;;2.70;99.90;;;;;;6246113;22;20020;-80
2024/01/27 06:43:44;;;;;;;12.07;2.53;;;2.70;99.90;;;;;;6246848;22;20665;-80
2024/01/27 06:46:09;;;;;;;38.53;4.95;;;2.70;99.90;;;;;;6246665;22;20034;-80
2024/01/27 06:48:35;;;;;;;9.00;1.93;;;2.70;99.90;;;;;;6248617;22;20448;-80
2024/01/27 06:51:01;;;;;;;9.93;2.40;;;2.70;99.90;;;;;;6248387;22;20015;-80
2024/01/27 06:53:27;;;;;;;12.27;2.30;;;2.70;99.90;;;;;;6247006;22;20273;-80
2024/01/27 06:55:52;;;;;;;12.85;2.28;;;2.80;99.90;;;;;;6248299;22;20472;-81
2024/01/27 06:58:18;;;;;;;15.10;2.40;;;2.80;99.90;;;;;;6247589;22;20020;-79
2024/01/27 07:00:44;;;;;;;13.53;2.40;;;2.80;99.90;;;;;;6246809;22;20019;-81
2024/01/27 07:03:11;;;;;;;16.23;2.85;;;2.70;99.90;;;;;;6246262;22;20980;-81
2024/01/27 07:05:40;;;;;;;12.73;1.95;;;2.80;99.90;;;;;;6247681;22;20016;-81
2024/01/27 07:08:09;;;;;;;14.85;2.53;;;2.70;99.90;;;;;;6246411;22;20153;-81
2024/01/27 07:10:35;;;;;;;14.57;3.45;;;2.80;99.90;;;;;;6248182;22;20039;-81
2024/01/27 07:13:01;;;;;;;14.77;2.38;;;2.80;99.90;;;;;;6257554;22;20019;-81
2024/01/27 07:15:27;;;;;;;23.52;3.63;;;2.70;99.90;;;;;;6266161;22;20106;-81
2024/01/27 07:17:53;;;;;;;11.77;2.45;;;2.70;99.90;;;;;;6266786;22;20012;-81
2024/01/27 07:20:20;;;;;;;12.18;2.33;;;2.70;99.90;;;;;;6268026;22;20016;-81
2024/01/27 07:22:49;;;;;;;10.40;2.55;;;2.70;99.90;;;;;;6267336;22;20030;-81
2024/01/27 07:25:14;;;;;;;12.25;2.88;;;2.70;99.90;;;;;;6268151;22;20012;-80
2024/01/27 07:27:40;;;;;;;10.90;2.25;;;2.70;99.90;;;;;;6241631;22;20043;-79
2024/01/27 07:30:09;;;;;;;10.13;3.60;;;2.70;99.90;;;;;;6267541;22;20027;-82
2024/01/27 07:32:34;;;;;;;13.23;2.70;;;2.80;99.90;;;;;;6269132;22;20375;-80
2024/01/27 07:35:01;;;;;;;10.97;2.90;;;2.80;99.90;;;;;;6266673;22;20044;-80
2024/01/27 07:37:27;;;;;;;8.23;2.40;;;2.90;99.90;;;;;;6266961;22;20661;-79
2024/01/27 07:39:52;;;;;;;10.52;2.72;;;2.80;99.90;;;;;;6269817;22;20012;-82
2024/01/27 07:42:18;;;;;;;13.27;3.07;;;2.80;99.90;;;;;;6268880;22;20024;-82
2024/01/27 07:44:43;;;;;;;22.07;3.97;;;2.90;99.90;;;;;;6268009;22;20250;-84
2024/01/27 07:47:09;;;;;;;13.33;2.77;;;2.90;99.90;;;;;;6267214;22;20019;-80
2024/01/27 07:49:34;;;;;;;17.57;2.73;;;3.00;99.90;;;;;;6267797;22;20756;-82
2024/01/27 07:52:00;;;;;;;13.18;3.10;;;3.00;99.90;;;;;;6267882;22;20016;-82
2024/01/27 07:54:26;;;;;;;16.52;3.03;;;3.00;99.90;;;;;;6267984;22;20020;-80
2024/01/27 07:56:52;;;;;;;12.95;2.55;;;3.00;99.90;;;;;;6267009;22;20046;-80
2024/01/27 07:59:18;;;;;;;20.10;3.20;;;3.10;99.90;;;;;;6269089;22;20019;-81
2024/01/27 08:01:44;;;;;;;;;;;3.10;99.90;;;;;;6266334;22;20586;-80
2024/01/27 08:04:10;;;;;;;11.25;3.10;;;3.10;99.90;;;;;;6268408;22;19922;-80
2024/01/27 08:06:46;;;;;;;28.45;4.60;;;3.10;99.90;;;;;;6266234;22;20430;-79
2024/01/27 08:09:12;;;;;;;19.42;4.13;;;3.20;99.90;;;;;;6267056;22;20464;-79
2024/01/27 08:11:38;;;;;;;17.00;3.25;;;3.20;99.90;;;;;;6266179;22;20015;-79
2024/01/27 08:14:03;;;;;;;16.00;2.97;;;3.20;99.90;;;;;;6266426;22;20526;-79
2024/01/27 08:16:29;;;;;;;15.93;3.00;;;3.20;99.90;;;;;;6265111;22;20239;-78
2024/01/27 08:18:55;;;;;;;15.98;3.45;;;3.30;99.90;;;;;;6263912;22;20436;-79
2024/01/27 08:21:21;;;;;;;13.82;3.35;;;3.30;99.90;;;;;;6267556;22;20016;-79
2024/01/27 08:23:46;;;;;;;15.00;3.50;;;3.30;99.90;;;;;;6267983;22;20706;-79
2024/01/27 08:26:12;;;;;;;21.63;3.38;;;3.40;99.90;;;;;;6267077;22;20227;-79
2024/01/27 08:28:38;;;;;;;17.33;3.22;;;3.40;99.90;;;;;;6267407;22;20045;-79
2024/01/27 08:31:04;;;;;;;19.77;3.28;;;3.40;99.90;;;;;;6267853;22;20057;-79
2024/01/27 08:33:30;;;;;;;12.98;3.80;;;3.50;99.90;;;;;;6266541;22;20074;-79
2024/01/27 08:35:56;;;;;;;21.58;3.33;;;3.50;99.90;;;;;;6242225;22;20020;-79
2024/01/27 08:38:21;;;;;;;15.65;2.92;;;3.50;99.90;;;;;;6268405;22;20512;-79
2024/01/27 08:40:47;;;;;;;18.10;3.90;;;3.60;99.90;;;;;;6268179;22;20044;-79
2024/01/27 08:43:12;;;;;;;15.77;3.70;;;3.60;99.90;;;;;;6269511;22;20108;-79
2024/01/27 08:45:39;;;;;;;21.48;3.63;;;3.60;99.90;;;;;;6269440;22;20019;-79
2024/01/27 08:48:05;;;;;;;22.13;4.10;;;3.70;99.90;;;;;;6269682;22;20356;-79
2024/01/27 08:50:30;;;;;;;14.88;3.30;;;3.70;99.90;;;;;;6272052;22;20381;-79
2024/01/27 08:52:56;;;;;;;19.87;3.57;;;3.70;99.90;;;;;;6271907;22;20038;-80
2024/01/27 08:55:23;;;;;;;21.85;3.97;;;3.70;99.90;;;;;;6269403;22;20323;-79
2024/01/27 08:57:52;;;;;;;20.30;3.72;;;3.80;99.90;;;;;;6269175;22;20444;-78
2024/01/27 09:00:18;;;;;;;17.83;3.95;;;3.80;99.90;;;;;;6269733;22;20012;-78
2024/01/27 09:02:44;;;;;;;16.00;4.20;;;3.90;99.90;;;;;;6268389;22;20080;-78
2024/01/27 09:05:09;;;;;;;22.90;4.70;;;3.90;99.90;;;;;;6265122;22;20058;-78
2024/01/27 09:07:35;;;;;;;17.88;4.10;;;3.90;99.90;;;;;;6266610;22;20340;-78
2024/01/27 09:10:01;;;;;;;16.35;3.67;;;4.00;99.90;;;;;;6265797;22;20020;-78
2024/01/27 09:12:27;;;;;;;16.63;3.92;;;4.00;99.90;;;;;;6271106;22;20015;-78
2024/01/27 09:14:53;;;;;;;19.05;4.10;;;4.10;99.90;;;;;;6270570;22;20016;-78
2024/01/27 09:17:20;;;;;;;16.73;3.92;;;4.10;99.90;;;;;;6270574;22;20023;-78
2024/01/27 09:19:46;;;;;;;17.20;4.45;;;4.20;99.90;;;;;;6270531;22;20433;-78
2024/01/27 09:22:11;;;;;;;18.85;4.20;;;4.20;99.90;;;;;;6268864;22;20023;-78
2024/01/27 09:24:37;;;;;;;16.98;4.65;;;4.30;99.90;;;;;;6268463;22;20200;-78
2024/01/27 09:27:03;;;;;;;27.88;5.95;;;4.30;99.90;;;;;;6268902;22;20086;-78
2024/01/27 09:29:29;;;;;;;21.00;5.25;;;4.40;99.90;;;;;;6268873;22;20023;-78
2024/01/27 09:31:55;;;;;;;24.00;5.55;;;4.50;99.90;;;;;;6268052;22;20073;-78
2024/01/27 09:34:20;;;;;;;21.02;4.82;;;4.50;99.90;;;;;;6270609;22;20011;-78
2024/01/27 09:36:46;;;;;;;17.87;5.13;;;4.60;99.90;;;;;;6260268;22;20027;-78
2024/01/27 09:39:11;;;;;;;21.13;6.27;;;4.70;99.90;;;;;;6266989;22;20545;-78
2024/01/27 09:41:38;;;;;;;19.48;5.55;;;4.70;99.90;;;;;;6267245;22;20018;-78
2024/01/27 09:44:04;;;;;;;21.45;5.68;;;4.80;99.90;;;;;;6266822;22;20605;-78
2024/01/27 09:46:30;;;;;;;;;;;4.80;99.90;;;;;;6268293;22;20024;-78
2024/01/27 09:48:56;;;;;;;20.88;6.38;;;4.90;99.90;;;;;;6267823;22;19916;-78
2024/01/27 09:51:22;;;;;;;13.85;4.82;;;4.90;99.90;;;;;;6265019;22;20449;-79
2024/01/27 09:53:52;;;;;;;22.05;6.35;;;5.00;99.90;;;;;;6264730;22;20016;-80
2024/01/27 09:56:18;;;;;;;19.27;5.28;;;5.00;99.90;;;;;;6266439;22;20012;-79
2024/01/27 09:58:44;;;;;;;;;;;5.00;99.90;;;;;;6267635;22;20011;-79
2024/01/27 10:01:10;;;;;;;17.33;4.50;;;5.10;99.90;;;;;;6243066;22;19911;-80
2024/01/27 10:03:38;;;;;;;18.38;4.85;;;5.20;99.90;;;;;;6267273;22;20043;-79
2024/01/27 10:06:07;;;;;;;21.63;5.28;;;5.20;99.90;;;;;;6267648;22;20059;-80
2024/01/27 10:08:33;;;;;;;21.05;5.35;;;5.30;99.90;;;;;;6267655;22;20019;-79
2024/01/27 10:10:59;;;;;;;16.08;4.43;;;5.40;99.90;;;;;;6268530;22;20506;-79
2024/01/27 10:13:27;;;;;;;17.88;4.60;;;5.50;99.90;;;;;;6268452;22;20008;-80
2024/01/27 10:16:06;;;;;;;22.75;4.85;;;5.50;99.90;;;;;;6268639;22;20082;-78
2024/01/27 10:18:32;;;;;;;18.13;5.68;;;5.60;99.90;;;;;;6268243;22;20015;-81
2024/01/27 10:20:58;;;;;;;;;;;5.60;99.90;;;;;;6269345;22;20026;-76
2024/01/27 10:23:24;;;;;;;17.80;5.00;;;5.60;99.90;;;;;;6266670;22;19911;-76
2024/01/27 10:25:50;;;;;;;21.75;5.25;;;5.60;99.90;;;;;;6270676;22;20070;-77
2024/01/27 10:28:17;;;;;;;21.98;5.65;;;5.70;99.90;;;;;;6267574;22;20011;-78
2024/01/27 10:30:43;;;;;;;18.38;4.80;;;5.80;99.90;;;;;;6267396;22;20016;-78
2024/01/27 10:33:10;;;;;;;22.20;6.05;;;5.80;99.90;;;;;;6266466;22;20092;-78
2024/01/27 10:35:36;;;;;;;19.45;5.28;;;5.90;99.90;;;;;;6267424;22;20012;-79
2024/01/27 10:38:02;;;;;;;16.13;4.78;;;5.90;99.90;;;;;;6267198;22;20022;-79
2024/01/27 10:40:28;;;;;;;21.45;5.25;;;6.00;99.90;;;;;;6268494;22;20401;-79
2024/01/27 10:43:08;;;;;;;24.08;6.13;;;6.10;99.90;;;;;;6268704;22;20019;-79
2024/01/27 10:45:41;;;;;;;21.15;5.55;;;6.20;99.90;;;;;;6267782;22;20020;-79
2024/01/27 10:48:12;;;;;;;18.25;5.63;;;6.20;99.90;;;;;;6242522;22;20012;-79
2024/01/27 10:50:39;;;;;;;20.10;4.85;;;6.30;99.90;;;;;;6254572;22;20106;-78
2024/01/27 10:53:09;;;;;;;18.00;5.43;;;6.40;99.90;;;;;;6264001;22;20106;-79
2024/01/27 10:55:36;;;;;;;20.67;5.32;;;6.40;99.90;;;;;;6265728;22;20043;-77
2024/01/27 10:58:03;;;;;;;17.65;4.82;;;6.60;99.90;;;;;;6268093;22;20065;-77
2024/01/27 11:00:30;;;;;;;;;;;6.80;99.90;;;;;;6268927;22;20027;-77
2024/01/27 11:03:02;;;;;;;17.05;4.53;;;6.90;99.90;;;;;;6269559;22;19911;-78
2024/01/27 11:05:31;;;;;;;20.90;5.63;;;7.20;99.90;;;;;;6269043;22;20116;-77
2024/01/27 11:07:58;;;;;;;17.63;5.05;;;7.30;99.90;;;;;;6265884;22;20051;-77
2024/01/27 11:10:26;;;;;;;17.90;4.97;;;7.40;99.90;;;;;;6267970;22;20345;-78
2024/01/27 11:12:54;;;;;;;13.50;4.25;;;7.50;99.90;;;;;;6267912;22;20016;-79
2024/01/27 11:15:21;;;;;;;19.42;4.25;;;7.60;99.90;;;;;;6267910;22;20027;-76
2024/01/27 11:17:46;;;;;;;20.30;5.35;;;7.60;99.90;;;;;;6268187;22;20015;-77
2024/01/27 11:20:13;;;;;;;16.30;4.15;;;7.70;99.90;;;;;;6265666;22;20042;-76
2024/01/27 11:22:40;;;;;;;15.23;3.90;;;7.80;99.90;;;;;;6265796;22;20077;-77
2024/01/27 11:25:12;;;;;;;14.27;3.92;;;7.90;99.90;;;;;;6266664;22;20023;-76
2024/01/27 11:27:41;;;;;;;18.48;3.83;;;8.10;99.90;;;;;;6266379;22;20333;-77
2024/01/27 11:30:28;;;;;;;19.92;4.72;;;8.20;99.90;;;;;;6266960;22;20290;-78
2024/01/27 11:33:00;;;;;;;16.80;4.72;;;8.10;99.90;;;;;;6239818;22;20460;-79
2024/01/27 11:35:26;;;;;;;17.00;3.88;;;8.30;99.90;;;;;;6263721;22;20042;-75
2024/01/27 11:37:52;;;;;;;20.85;4.40;;;8.40;99.90;;;;;;6264075;22;20117;-77
2024/01/27 11:40:18;;;;;;;15.80;3.35;;;8.40;99.90;;;;;;6256375;22;20016;-76
2024/01/27 11:42:43;;;;;;;18.85;3.90;;;8.60;99.90;;;;;;6235677;22;20016;-76
2024/01/27 11:45:09;;;;;;;14.65;4.22;;;8.70;99.90;;;;;;6241294;22;20369;-77
2024/01/27 11:47:35;;;;;;;;;;;8.80;99.90;;;;;;6242244;22;20018;-76
2024/01/27 11:50:01;;;;;;;15.05;4.38;;;8.80;99.90;;;;;;6265101;22;20247;-76
2024/01/27 11:52:28;;;;;;;14.90;3.80;;;8.90;99.90;;;;;;6267203;22;20778;-77
2024/01/27 11:54:58;;;;;;;17.88;3.83;;;8.90;99.90;;;;;;6240404;22;20018;-77
2024/01/27 11:57:24;;;;;;;15.98;3.72;;;9.00;99.90;;;;;;6265679;22;20019;-75
2024/01/27 11:59:50;;;;;;;14.95;3.60;;;8.90;99.90;;;;;;6264992;22;20437;-76
2024/01/27 12:02:17;;;;;;;15.18;3.72;;;9.00;99.90;;;;;;6267083;22;20053;-76
2024/01/27 12:04:43;;;;;;;13.98;3.28;;;9.10;99.90;;;;;;6268443;22;20323;-76
2024/01/27 12:07:09;;;;;;;14.00;3.03;;;9.30;99.90;;;;;;6271029;22;20102;-76
2024/01/27 12:09:36;;;;;;;19.40;3.95;;;9.50;99.90;;;;;;6270947;22;20088;-77
2024/01/27 12:12:03;;;;;;;18.80;4.45;;;9.40;99.90;;;;;;6270693;22;20015;-76
2024/01/27 12:14:45;;;;;;;16.73;3.50;;;9.30;99.90;;;;;;6270109;22;20007;-76
2024/01/27 12:17:11;;;;;;;14.57;3.00;;;9.20;99.90;;;;;;6246850;22;20022;-77
2024/01/27 12:19:38;;;;;;;16.10;3.42;;;9.40;99.90;;;;;;6247972;22;20046;-76
2024/01/27 12:22:05;;;;;;;12.27;2.92;;;9.40;99.90;;;;;;6274739;22;20710;-76
2024/01/27 12:24:32;;;;;;;18.17;3.00;;;9.60;99.90;;;;;;6274578;22;20159;-76
2024/01/27 12:26:59;;;;;;;12.27;3.45;;;9.50;99.90;;;;;;6273825;22;20082;-75
2024/01/27 12:29:24;;;;;;;18.05;3.20;;;9.60;99.90;;;;;;6273333;22;20044;-75
2024/01/27 12:31:50;;;;;;;17.85;3.28;;;9.40;99.90;;;;;;6272668;22;20021;-76
2024/01/27 12:34:19;;;;;;;17.38;3.58;;;9.30;99.90;;;;;;6246790;22;20050;-74
2024/01/27 12:36:44;;;;;;;14.80;2.90;;;9.30;99.90;;;;;;6273618;22;20003;-75
2024/01/27 12:39:10;;;;;;;14.30;2.85;;;9.40;99.90;;;;;;6273413;22;20455;-76
2024/01/27 12:41:36;;;;;;;14.55;3.53;;;9.60;99.90;;;;;;6272798;22;20011;-75
2024/01/27 12:44:02;;;;;;;17.10;3.28;;;9.60;99.90;;;;;;6247094;22;20360;-75